Time;durP1;ratioP1;P1;durP2;ratioP2;P2;SDS_P1;SDS_P2;PMS_P1;PMS_P2;Temp;Humidity;BMP_temperature;BMP_pressure;BME280_temperature;BME280_humidity;BME280_pressure;Samples;Min_cycle;Max_cycle;Signal;HPM_P1;HPM_P2
2022/04/20 00:02:11;;;;;;;;;62.50;50.50;;;;;;;;5022849;28;11544;-75
2022/04/20 00:04:38;;;;;;;;;57.75;45.00;;;;;;;;5018407;28;11526;-75
2022/04/20 00:07:06;;;;;;;;;67.75;54.75;;;;;;;;5005987;28;11532;-75
2022/04/20 00:09:35;;;;;;;;;64.00;51.50;;;;;;;;5022733;28;11552;-75
2022/04/20 00:12:02;;;;;;;;;65.75;54.75;;;;;;;;5022535;28;11509;-75
2022/04/20 00:14:29;;;;;;;;;63.25;51.50;;;;;;;;5022771;28;11526;-75
2022/04/20 00:16:57;;;;;;;;;64.50;49.50;;;;;;;;5020554;28;11501;-76
2022/04/20 00:19:24;;;;;;;;;61.50;50.25;;;;;;;;5022498;28;11532;-75
2022/04/20 00:21:52;;;;;;;;;63.00;52.50;;;;;;;;5022223;28;11660;-74
2022/04/20 00:24:19;;;;;;;;;69.75;56.00;;;;;;;;5022572;28;12448;-75
2022/04/20 00:26:48;;;;;;;;;66.75;54.75;;;;;;;;5022982;28;11653;-75
2022/04/20 00:29:15;;;;;;;;;65.75;54.00;;;;;;;;5005168;28;11683;-74
2022/04/20 00:31:42;;;;;;;;;65.75;50.00;;;;;;;;5022099;28;11646;-75
2022/04/20 00:34:09;;;;;;;;;66.00;53.25;;;;;;;;5009323;28;11536;-74
2022/04/20 00:36:37;;;;;;;;;68.50;53.75;;;;;;;;5022129;28;11903;-75
2022/04/20 00:39:04;;;;;;;;;68.50;55.75;;;;;;;;5020217;28;11581;-75
2022/04/20 00:41:34;;;;;;;;;64.50;49.75;;;;;;;;5004951;28;11518;-75
2022/04/20 00:44:03;;;;;;;;;68.50;54.25;;;;;;;;5019794;28;11527;-75
2022/04/20 00:46:31;;;;;;;;;64.00;52.00;;;;;;;;5020845;28;11518;-74
2022/04/20 00:48:59;;;;;;;;;76.50;59.50;;;;;;;;5022399;28;11547;-76
2022/04/20 00:51:26;;;;;;;;;66.25;54.25;;;;;;;;5002123;28;11547;-76
2022/04/20 00:53:53;;;;;;;;;71.50;57.25;;;;;;;;5012332;28;11523;-75
2022/04/20 00:56:20;;;;;;;;;71.00;56.25;;;;;;;;5020840;28;11553;-74
2022/04/20 00:58:48;;;;;;;;;72.75;58.75;;;;;;;;5022241;28;11556;-75
2022/04/20 01:01:17;;;;;;;;;67.25;53.00;;;;;;;;5021449;28;12436;-75
2022/04/20 01:03:45;;;;;;;;;68.25;57.25;;;;;;;;5019727;28;11625;-75
2022/04/20 01:06:12;;;;;;;;;68.75;56.00;;;;;;;;5020870;28;11569;-75
2022/04/20 01:08:39;;;;;;;;;63.00;52.75;;;;;;;;5018457;28;11659;-76
2022/04/20 01:11:07;;;;;;;;;65.00;54.25;;;;;;;;5019800;28;11519;-76
2022/04/20 01:13:34;;;;;;;;;65.50;53.50;;;;;;;;5020998;28;11542;-75
2022/04/20 01:16:01;;;;;;;;;74.50;56.75;;;;;;;;5022170;28;11543;-74
2022/04/20 01:18:30;;;;;;;;;64.00;51.75;;;;;;;;5011842;28;11657;-75
2022/04/20 01:20:59;;;;;;;;;72.25;56.00;;;;;;;;5003028;28;11546;-75
2022/04/20 01:23:27;;;;;;;;;68.50;55.75;;;;;;;;5021640;28;11535;-76
2022/04/20 01:25:54;;;;;;;;;69.00;53.75;;;;;;;;5020617;28;11542;-76
2022/04/20 01:28:21;;;;;;;;;69.00;52.75;;;;;;;;5022196;28;11612;-75
2022/04/20 01:30:48;;;;;;;;;67.50;52.00;;;;;;;;5017562;28;12374;-75
2022/04/20 01:33:16;;;;;;;;;67.00;54.00;;;;;;;;5022448;28;12910;-75
2022/04/20 01:35:43;;;;;;;;;73.00;57.00;;;;;;;;5019715;28;11559;-75
2022/04/20 01:38:11;;;;;;;;;72.25;57.25;;;;;;;;5021115;28;11557;-74
2022/04/20 01:40:38;;;;;;;;;69.25;54.00;;;;;;;;5022262;28;11535;-76
2022/04/20 01:43:06;;;;;;;;;69.25;52.00;;;;;;;;5018849;28;11657;-75
2022/04/20 01:45:33;;;;;;;;;60.25;52.25;;;;;;;;5020077;28;11577;-75
2022/04/20 01:48:01;;;;;;;;;68.00;53.75;;;;;;;;5019283;28;12276;-75
2022/04/20 01:50:28;;;;;;;;;65.75;52.75;;;;;;;;5020657;28;11577;-74
2022/04/20 01:52:55;;;;;;;;;63.25;52.50;;;;;;;;5021242;28;11537;-75
2022/04/20 01:55:24;;;;;;;;;71.75;56.00;;;;;;;;5020656;28;11578;-74
2022/04/20 01:57:53;;;;;;;;;71.00;56.00;;;;;;;;5014563;28;11529;-76
2022/04/20 02:00:20;;;;;;;;;72.00;55.50;;;;;;;;5017676;28;12621;-75
2022/04/20 02:02:46;;;;;;;;;72.00;57.00;;;;;;;;5022292;28;12340;-76
2022/04/20 02:05:14;;;;;;;;;70.25;56.00;;;;;;;;5017693;28;11534;-75
2022/04/20 02:07:42;;;;;;;;;70.25;55.00;;;;;;;;5020922;28;11592;-76
2022/04/20 02:10:09;;;;;;;;;67.00;54.75;;;;;;;;5015754;28;11540;-75
2022/04/20 02:12:38;;;;;;;;;62.25;51.00;;;;;;;;5012470;28;11538;-75
2022/04/20 02:15:07;;;;;;;;;69.00;54.00;;;;;;;;5009234;28;11657;-75
2022/04/20 02:17:37;;;;;;;;;66.75;54.00;;;;;;;;5013538;28;11592;-75
2022/04/20 02:20:04;;;;;;;;;65.25;52.00;;;;;;;;5021590;28;11526;-75
2022/04/20 02:22:32;;;;;;;;;71.00;56.50;;;;;;;;5020632;28;11537;-76
2022/04/20 02:24:59;;;;;;;;;63.25;52.25;;;;;;;;5023604;28;11554;-74
2022/04/20 02:27:27;;;;;;;;;66.75;54.00;;;;;;;;5021037;28;11581;-74
2022/04/20 02:29:55;;;;;;;;;71.75;55.50;;;;;;;;5021645;28;11564;-74
2022/04/20 02:32:22;;;;;;;;;73.00;59.50;;;;;;;;5019169;28;12047;-75
2022/04/20 02:34:50;;;;;;;;;73.25;58.50;;;;;;;;5020064;28;11543;-75
2022/04/20 02:37:17;;;;;;;;;65.75;53.00;;;;;;;;5021928;28;11527;-75
2022/04/20 02:39:45;;;;;;;;;73.75;57.00;;;;;;;;5020212;28;11533;-75
2022/04/20 02:42:12;;;;;;;;;69.75;56.50;;;;;;;;5023441;28;12319;-75
2022/04/20 02:44:40;;;;;;;;;75.25;60.00;;;;;;;;5019830;28;11550;-75
2022/04/20 02:47:10;;;;;;;;;64.50;53.25;;;;;;;;5025265;28;11527;-76
2022/04/20 02:49:37;;;;;;;;;67.75;52.50;;;;;;;;5022474;28;11511;-75
2022/04/20 02:52:05;;;;;;;;;57.75;48.25;;;;;;;;5025432;28;11535;-75
2022/04/20 02:54:33;;;;;;;;;65.75;53.25;;;;;;;;5025338;28;11528;-75
2022/04/20 02:57:00;;;;;;;;;66.75;54.50;;;;;;;;5009425;28;11543;-75
2022/04/20 02:59:27;;;;;;;;;65.75;52.00;;;;;;;;5029514;28;11540;-75
2022/04/20 03:01:54;;;;;;;;;63.00;52.00;;;;;;;;5021522;28;12238;-76
2022/04/20 03:04:23;;;;;;;;;63.50;52.75;;;;;;;;5024350;28;11542;-76
2022/04/20 03:06:51;;;;;;;;;62.50;51.25;;;;;;;;5013535;28;11570;-77
2022/04/20 03:09:18;;;;;;;;;66.00;55.25;;;;;;;;5023877;28;11571;-76
2022/04/20 03:11:46;;;;;;;;;64.00;51.25;;;;;;;;5022798;28;11491;-76
2022/04/20 03:14:13;;;;;;;;;65.75;51.75;;;;;;;;5025412;28;11708;-75
2022/04/20 03:16:40;;;;;;;;;71.25;57.25;;;;;;;;5024176;28;11534;-75
2022/04/20 03:19:07;;;;;;;;;63.00;53.00;;;;;;;;5021776;28;11645;-75
2022/04/20 03:21:36;;;;;;;;;60.50;48.25;;;;;;;;5023980;28;11517;-75
2022/04/20 03:24:05;;;;;;;;;65.00;55.00;;;;;;;;5023576;28;11563;-76
2022/04/20 03:26:32;;;;;;;;;69.50;54.25;;;;;;;;5006928;28;12854;-75
2022/04/20 03:28:59;;;;;;;;;64.50;50.00;;;;;;;;5023885;28;11550;-76
2022/04/20 03:31:27;;;;;;;;;63.25;53.00;;;;;;;;5022099;28;11466;-76
2022/04/20 03:33:54;;;;;;;;;60.00;51.25;;;;;;;;5020732;28;11691;-77
2022/04/20 03:36:21;;;;;;;;;58.50;45.50;;;;;;;;4997396;28;11530;-76
2022/04/20 03:38:50;;;;;;;;;61.50;51.75;;;;;;;;5023314;28;11544;-76
2022/04/20 03:41:18;;;;;;;;;63.00;50.50;;;;;;;;5005610;28;12376;-75
2022/04/20 03:43:45;;;;;;;;;66.50;49.25;;;;;;;;5022077;28;11532;-75
2022/04/20 03:46:12;;;;;;;;;61.50;49.50;;;;;;;;5022803;28;12666;-76
2022/04/20 03:48:40;;;;;;;;;66.00;52.50;;;;;;;;5024305;28;11557;-75
2022/04/20 03:51:07;;;;;;;;;62.75;50.25;;;;;;;;5015831;28;11519;-75
2022/04/20 03:53:35;;;;;;;;;60.75;48.25;;;;;;;;5021798;28;11535;-74
2022/04/20 03:56:03;;;;;;;;;65.50;52.50;;;;;;;;5004376;28;11550;-76
2022/04/20 03:58:31;;;;;;;;;59.25;48.50;;;;;;;;5021644;28;11644;-74
2022/04/20 04:00:58;;;;;;;;;57.00;45.50;;;;;;;;5021843;28;11481;-76
2022/04/20 04:03:26;;;;;;;;;58.25;48.75;;;;;;;;5003115;28;11494;-76
2022/04/20 04:05:53;;;;;;;;;62.00;49.75;;;;;;;;5029301;28;11629;-74
2022/04/20 04:08:21;;;;;;;;;64.25;49.50;;;;;;;;5023295;28;11628;-76
2022/04/20 04:10:49;;;;;;;;;61.00;48.00;;;;;;;;5022289;28;11592;-76
2022/04/20 04:13:19;;;;;;;;;63.50;50.75;;;;;;;;5021961;28;12388;-76
2022/04/20 04:15:46;;;;;;;;;51.00;44.50;;;;;;;;5021312;28;11606;-75
2022/04/20 04:18:13;;;;;;;;;57.50;44.00;;;;;;;;5019740;28;11502;-75
2022/04/20 04:20:41;;;;;;;;;55.00;45.00;;;;;;;;5015752;28;11580;-75
2022/04/20 04:23:08;;;;;;;;;56.75;46.50;;;;;;;;5026306;28;11581;-75
2022/04/20 04:25:35;;;;;;;;;53.25;44.50;;;;;;;;5023294;28;11516;-75
2022/04/20 04:28:03;;;;;;;;;53.75;44.00;;;;;;;;5022225;28;11535;-75
2022/04/20 04:30:32;;;;;;;;;58.50;49.25;;;;;;;;5005026;28;11427;-75
2022/04/20 04:32:59;;;;;;;;;51.50;45.50;;;;;;;;5017691;28;12184;-74
2022/04/20 04:35:26;;;;;;;;;59.25;45.75;;;;;;;;5021922;28;11494;-75
2022/04/20 04:37:54;;;;;;;;;51.00;43.75;;;;;;;;5019570;28;11574;-75
2022/04/20 04:40:21;;;;;;;;;31.75;31.00;;;;;;;;5026221;28;12403;-75
2022/04/20 04:42:48;;;;;;;;;47.50;41.75;;;;;;;;5019171;28;12310;-74
2022/04/20 04:50:46;;;;;;;;;40.50;37.50;;;;;;;;5013961;28;11501;-75
2022/04/20 04:53:13;;;;;;;;;58.50;46.00;;;;;;;;5022671;28;11550;-75
2022/04/20 04:55:41;;;;;;;;;49.50;42.50;;;;;;;;5019663;28;11590;-76
2022/04/20 04:58:08;;;;;;;;;65.50;51.75;;;;;;;;5021293;28;12329;-75
2022/04/20 05:00:35;;;;;;;;;49.25;44.00;;;;;;;;5020472;28;11592;-75
2022/04/20 05:03:04;;;;;;;;;54.75;44.75;;;;;;;;5017110;28;12439;-75
2022/04/20 05:05:31;;;;;;;;;58.00;45.50;;;;;;;;5019823;28;12344;-75
2022/04/20 05:07:59;;;;;;;;;59.25;45.75;;;;;;;;5020129;28;11535;-75
2022/04/20 05:10:26;;;;;;;;;51.00;42.50;;;;;;;;5023813;28;11581;-75
2022/04/20 05:12:53;;;;;;;;;48.00;41.00;;;;;;;;5022256;28;11536;-74
2022/04/20 05:15:21;;;;;;;;;59.25;46.50;;;;;;;;5021246;28;11550;-75
2022/04/20 05:17:48;;;;;;;;;49.75;40.00;;;;;;;;5021220;28;11525;-75
2022/04/20 05:20:19;;;;;;;;;44.50;42.75;;;;;;;;5018878;28;11527;-75
2022/04/20 05:22:46;;;;;;;;;47.25;42.25;;;;;;;;5022590;28;11529;-76
2022/04/20 05:25:13;;;;;;;;;50.50;42.00;;;;;;;;5020683;28;11638;-75
2022/04/20 05:27:41;;;;;;;;;54.00;39.00;;;;;;;;5021946;28;11533;-75
2022/04/20 05:30:11;;;;;;;;;46.75;41.50;;;;;;;;5025410;28;11572;-76
2022/04/20 05:32:38;;;;;;;;;53.00;46.00;;;;;;;;5020567;28;11631;-75
2022/04/20 05:35:06;;;;;;;;;50.75;45.25;;;;;;;;5021089;28;11633;-75
2022/04/20 05:43:07;;;;;;;;;52.50;41.75;;;;;;;;5019388;28;11470;-75
2022/04/20 05:45:36;;;;;;;;;45.75;41.25;;;;;;;;5021366;28;11509;-75
2022/04/20 05:48:04;;;;;;;;;50.50;43.75;;;;;;;;5017424;28;11661;-75
2022/04/20 05:50:31;;;;;;;;;57.50;45.75;;;;;;;;5021437;28;11540;-75
2022/04/20 05:53:00;;;;;;;;;61.00;48.00;;;;;;;;5021562;28;11553;-75
2022/04/20 05:55:28;;;;;;;;;48.75;42.75;;;;;;;;5019642;28;11541;-75
2022/04/20 05:57:55;;;;;;;;;47.75;43.75;;;;;;;;5021226;28;11553;-75
2022/04/20 06:00:22;;;;;;;;;44.50;37.75;;;;;;;;5019063;28;11543;-76
2022/04/20 06:02:50;;;;;;;;;59.00;46.75;;;;;;;;5003539;28;11535;-75
2022/04/20 06:05:17;;;;;;;;;43.00;38.00;;;;;;;;5020398;28;11620;-76
2022/04/20 06:07:44;;;;;;;;;48.75;41.50;;;;;;;;5017993;28;11599;-75
2022/04/20 06:10:13;;;;;;;;;55.75;45.50;;;;;;;;5021830;28;11556;-82
2022/04/20 06:12:41;;;;;;;;;52.50;46.00;;;;;;;;5010694;28;11659;-84
2022/04/20 06:15:09;;;;;;;;;54.00;40.75;;;;;;;;5008889;28;11513;-91
2022/04/20 06:17:37;;;;;;;;;44.25;40.50;;;;;;;;5024015;28;11493;-89
2022/04/20 06:20:05;;;;;;;;;28.25;28.25;;;;;;;;5020109;28;11540;-85
2022/04/20 06:22:32;;;;;;;;;35.75;33.50;;;;;;;;5029920;28;11553;-87
2022/04/20 06:25:00;;;;;;;;;34.00;31.25;;;;;;;;5008638;28;11558;-88
2022/04/20 06:27:31;;;;;;;;;31.25;29.25;;;;;;;;5026932;28;11516;-83
2022/04/20 06:29:59;;;;;;;;;36.50;34.75;;;;;;;;5025062;28;11529;-84
2022/04/20 06:32:27;;;;;;;;;32.00;30.00;;;;;;;;5007288;28;11501;-84
2022/04/20 06:34:55;;;;;;;;;26.25;26.25;;;;;;;;5023007;28;11597;-86
2022/04/20 06:37:22;;;;;;;;;34.75;30.25;;;;;;;;5024228;28;11550;-85
2022/04/20 06:39:50;;;;;;;;;31.25;31.25;;;;;;;;5019608;28;11541;-87
2022/04/20 06:42:18;;;;;;;;;33.75;31.00;;;;;;;;5003671;28;11454;-81
2022/04/20 06:44:47;;;;;;;;;34.25;30.25;;;;;;;;5026726;28;11477;-78
2022/04/20 06:47:14;;;;;;;;;33.25;27.75;;;;;;;;5001894;28;11619;-83
2022/04/20 06:49:42;;;;;;;;;34.75;32.25;;;;;;;;5025937;28;11473;-80
2022/04/20 07:00:25;;;;;;;;;30.00;28.00;;;;;;;;5022524;28;11444;-89
2022/04/20 07:03:00;;;;;;;;;29.75;26.50;;;;;;;;5022134;28;11278;-87
2022/04/20 07:05:27;;;;;;;;;30.75;23.75;;;;;;;;5020909;28;11270;-87
2022/04/20 07:07:54;;;;;;;;;22.75;22.75;;;;;;;;5017121;28;11912;-78
2022/04/20 07:10:22;;;;;;;;;20.75;18.75;;;;;;;;5014115;28;11264;-80
2022/04/20 07:12:49;;;;;;;;;22.00;19.75;;;;;;;;5021675;28;11162;-78
2022/04/20 07:15:17;;;;;;;;;24.50;23.00;;;;;;;;5004250;28;11221;-78
2022/04/20 07:17:45;;;;;;;;;21.25;21.25;;;;;;;;5009393;28;11077;-79
2022/04/20 07:20:17;;;;;;;;;15.25;15.25;;;;;;;;5018552;28;10631;-77
2022/04/20 07:22:45;;;;;;;;;15.50;13.00;;;;;;;;5006580;28;10593;-78
2022/04/20 07:25:12;;;;;;;;;13.00;13.00;;;;;;;;5019509;28;11245;-78
2022/04/20 07:27:39;;;;;;;;;18.25;15.50;;;;;;;;5019507;28;10501;-80
2022/04/20 07:30:08;;;;;;;;;13.25;13.25;;;;;;;;5011697;28;10522;-78
2022/04/20 07:32:36;;;;;;;;;16.00;16.00;;;;;;;;5017163;28;10178;-79
2022/04/20 07:35:05;;;;;;;;;11.50;11.50;;;;;;;;4985321;28;10391;-79
2022/04/20 07:37:32;;;;;;;;;14.00;14.00;;;;;;;;5023682;28;10079;-80
2022/04/20 07:40:00;;;;;;;;;10.00;10.00;;;;;;;;5013599;28;10120;-75
2022/04/20 07:42:27;;;;;;;;;15.00;13.75;;;;;;;;4994778;28;10032;-82
2022/04/20 07:44:56;;;;;;;;;14.25;12.00;;;;;;;;5021683;28;10852;-80
2022/04/20 07:47:25;;;;;;;;;12.75;9.50;;;;;;;;5019188;28;9898;-79
2022/04/20 07:52:46;;;;;;;;;14.50;12.00;;;;;;;;5004214;28;9583;-79
2022/04/20 07:55:17;;;;;;;;;10.00;10.00;;;;;;;;5015586;28;9683;-84
2022/04/20 07:57:45;;;;;;;;;13.33;11.33;;;;;;;;5016201;28;9637;-84
2022/04/20 08:00:14;;;;;;;;;10.33;9.33;;;;;;;;5022698;28;9378;-84
2022/04/20 08:02:42;;;;;;;;;9.00;9.00;;;;;;;;4998946;28;9257;-82
2022/04/20 08:05:10;;;;;;;;;9.00;9.00;;;;;;;;5020601;28;10003;-83
2022/04/20 08:07:38;;;;;;;;;8.00;8.00;;;;;;;;5023645;28;9326;-81
2022/04/20 08:10:09;;;;;;;;;8.33;8.33;;;;;;;;5014211;28;9938;-82
2022/04/20 08:12:38;;;;;;;;;6.00;6.00;;;;;;;;5018939;28;8997;-81
2022/04/20 08:15:07;;;;;;;;;6.00;6.00;;;;;;;;5020622;28;9085;-81
2022/04/20 08:17:35;;;;;;;;;5.75;5.75;;;;;;;;4998015;28;8903;-82
2022/04/20 08:20:03;;;;;;;;;5.00;5.00;;;;;;;;5014996;28;8970;-80
2022/04/20 08:22:30;;;;;;;;;7.50;6.75;;;;;;;;5019447;28;8848;-79
2022/04/20 08:24:59;;;;;;;;;7.00;6.00;;;;;;;;5022155;28;8855;-80
2022/04/20 08:27:27;;;;;;;;;6.00;6.00;;;;;;;;5021887;28;8878;-80
2022/04/20 08:29:55;;;;;;;;;5.25;5.25;;;;;;;;5022429;28;9609;-82
2022/04/20 08:32:22;;;;;;;;;6.75;5.50;;;;;;;;5015534;28;8866;-79
2022/04/20 08:34:50;;;;;;;;;7.00;5.25;;;;;;;;5022422;28;8846;-84
2022/04/20 08:37:18;;;;;;;;;7.00;6.00;;;;;;;;5002000;28;9759;-81
2022/04/20 08:39:45;;;;;;;;;4.00;4.00;;;;;;;;5022146;28;8869;-80
2022/04/20 08:42:13;;;;;;;;;4.00;4.00;;;;;;;;5022713;28;8862;-81
2022/04/20 08:44:47;;;;;;;;;4.00;4.00;;;;;;;;5021562;28;8893;-80
2022/04/20 08:47:21;;;;;;;;;5.00;5.00;;;;;;;;5016888;28;8865;-82
2022/04/20 08:49:50;;;;;;;;;5.25;5.25;;;;;;;;5017161;28;8983;-80
2022/04/20 08:52:41;;;;;;;;;4.00;4.00;;;;;;;;5023223;28;8940;-81
2022/04/20 08:55:11;;;;;;;;;5.00;5.00;;;;;;;;5006232;28;8861;-80
2022/04/20 08:57:39;;;;;;;;;5.75;5.75;;;;;;;;5018141;28;9670;-80
2022/04/20 09:00:10;;;;;;;;;3.75;3.75;;;;;;;;5004824;28;8886;-78
2022/04/20 09:02:38;;;;;;;;;3.75;3.75;;;;;;;;5021828;28;9016;-81
2022/04/20 09:05:07;;;;;;;;;6.00;5.25;;;;;;;;5017218;28;9664;-80
2022/04/20 09:07:34;;;;;;;;;4.25;4.25;;;;;;;;5019807;28;8984;-80
2022/04/20 09:10:05;;;;;;;;;4.75;4.75;;;;;;;;5017076;28;8882;-80
2022/04/20 09:12:32;;;;;;;;;29.75;22.25;;;;;;;;5006739;28;8862;-80
2022/04/20 09:15:01;;;;;;;;;6.00;5.75;;;;;;;;5020096;28;8866;-80
2022/04/20 09:17:32;;;;;;;;;7.25;4.25;;;;;;;;5018505;28;8846;-80
2022/04/20 09:20:00;;;;;;;;;4.00;4.00;;;;;;;;4999183;28;9665;-80
2022/04/20 09:22:29;;;;;;;;;4.00;4.00;;;;;;;;5020694;28;8830;-80
2022/04/20 09:25:04;;;;;;;;;5.00;5.00;;;;;;;;5019348;28;8907;-80
2022/04/20 09:27:31;;;;;;;;;6.00;4.00;;;;;;;;5020702;28;8898;-80
2022/04/20 09:29:59;;;;;;;;;5.50;4.00;;;;;;;;5018733;28;8862;-80
2022/04/20 09:32:36;;;;;;;;;4.50;4.50;;;;;;;;5020576;28;8853;-80
2022/04/20 09:35:06;;;;;;;;;4.50;4.50;;;;;;;;5016330;28;8988;-80
2022/04/20 09:37:34;;;;;;;;;5.75;4.75;;;;;;;;5014142;28;8883;-79
2022/04/20 09:40:04;;;;;;;;;5.00;5.00;;;;;;;;5017555;28;8873;-79
2022/04/20 09:42:34;;;;;;;;;6.60;5.00;;;;;;;;4994223;28;8846;-79
2022/04/20 09:45:02;;;;;;;;;6.75;5.00;;;;;;;;5013194;28;8947;-79
2022/04/20 09:50:23;;;;;;;;;5.50;5.00;;;;;;;;5015139;28;8873;-78
2022/04/20 09:52:54;;;;;;;;;3.80;3.80;;;;;;;;5011212;28;8826;-81
2022/04/20 09:55:29;;;;;;;;;3.00;3.00;;;;;;;;5006580;28;9037;-79
2022/04/20 09:58:13;;;;;;;;;4.00;4.00;;;;;;;;5008190;28;10065;-83
2022/04/20 10:00:41;;;;;;;;;4.40;4.40;;;;;;;;5013746;28;8810;-81
2022/04/20 10:03:10;;;;;;;;;4.40;4.40;;;;;;;;5013345;28;8870;-81
2022/04/20 10:05:38;;;;;;;;;2.00;2.00;;;;;;;;5013122;28;8854;-83
2022/04/20 10:08:07;;;;;;;;;3.00;3.00;;;;;;;;5014984;28;9025;-84
2022/04/20 10:10:35;;;;;;;;;2.00;2.00;;;;;;;;4994210;28;8868;-80
2022/04/20 10:13:03;;;;;;;;;3.40;3.20;;;;;;;;5014989;28;8864;-81
2022/04/20 10:18:19;;;;;;;;;3.00;3.00;;;;;;;;5019739;28;9687;-83
2022/04/20 10:20:52;;;;;;;;;8.40;8.40;;;;;;;;5017136;28;8874;-86
2022/04/20 10:23:20;;;;;;;;;4.00;3.00;;;;;;;;5015212;28;8849;-82
2022/04/20 10:25:50;;;;;;;;;1.00;1.00;;;;;;;;5018259;28;8997;-83
2022/04/20 10:28:24;;;;;;;;;3.00;3.00;;;;;;;;5020298;28;8858;-80
2022/04/20 10:30:59;;;;;;;;;3.40;3.00;;;;;;;;5018421;28;8794;-81
2022/04/20 10:33:31;;;;;;;;;3.00;3.00;;;;;;;;5020918;28;9804;-83
2022/04/20 10:36:01;;;;;;;;;3.20;3.20;;;;;;;;5015809;28;8970;-81
2022/04/20 10:38:31;;;;;;;;;1.60;1.60;;;;;;;;5014792;28;8854;-80
2022/04/20 10:41:07;;;;;;;;;4.00;3.00;;;;;;;;5016073;28;8881;-78
2022/04/20 10:43:35;;;;;;;;;3.00;3.00;;;;;;;;5016963;28;8989;-78
2022/04/20 10:46:14;;;;;;;;;2.00;2.00;;;;;;;;5012478;28;8866;-81
2022/04/20 10:48:52;;;;;;;;;4.40;3.00;;;;;;;;5015075;28;8963;-79
2022/04/20 10:51:22;;;;;;;;;4.00;4.00;;;;;;;;5017194;28;9739;-80
2022/04/20 10:53:51;;;;;;;;;3.20;2.00;;;;;;;;5019675;28;8862;-80
2022/04/20 10:56:19;;;;;;;;;2.00;2.00;;;;;;;;5007394;28;8868;-79
2022/04/20 10:58:59;;;;;;;;;2.60;2.60;;;;;;;;5012589;28;9044;-79
2022/04/20 11:01:26;;;;;;;;;2.00;2.00;;;;;;;;5019060;28;8819;-80
2022/04/20 11:04:06;;;;;;;;;2.00;2.00;;;;;;;;5012358;28;9336;-78
2022/04/20 11:07:10;;;;;;;;;3.00;3.00;;;;;;;;5013072;28;9005;-77
2022/04/20 11:09:57;;;;;;;;;2.00;2.00;;;;;;;;5021442;28;8992;-75
2022/04/20 11:18:42;;;;;;;;;2.60;2.60;;;;;;;;5015958;28;8810;-78
2022/04/20 11:21:21;;;;;;;;;2.00;2.00;;;;;;;;5018375;28;8939;-80
2022/04/20 11:24:00;;;;;;;;;2.00;2.00;;;;;;;;5011903;28;8886;-80
2022/04/20 11:26:29;;;;;;;;;2.00;2.00;;;;;;;;5008447;28;8881;-80
2022/04/20 11:28:59;;;;;;;;;2.00;2.00;;;;;;;;5021603;28;8885;-80
2022/04/20 11:31:26;;;;;;;;;3.00;3.00;;;;;;;;5021147;28;8818;-80
2022/04/20 11:33:54;;;;;;;;;7.00;3.60;;;;;;;;5003553;28;8979;-80
2022/04/20 11:36:23;;;;;;;;;1.40;1.40;;;;;;;;5019182;28;8870;-80
2022/04/20 11:38:53;;;;;;;;;2.40;2.40;;;;;;;;5022827;28;8891;-80
2022/04/20 11:41:20;;;;;;;;;2.60;2.60;;;;;;;;5021584;28;8908;-79
2022/04/20 11:43:50;;;;;;;;;2.60;2.60;;;;;;;;5019927;28;8866;-81
2022/04/20 11:46:18;;;;;;;;;3.60;3.60;;;;;;;;5017494;28;9636;-79
2022/04/20 11:48:56;;;;;;;;;3.00;3.00;;;;;;;;5004751;28;9775;-79
2022/04/20 11:51:37;;;;;;;;;4.00;2.40;;;;;;;;5020129;28;8869;-81
2022/04/20 11:54:05;;;;;;;;;3.00;3.00;;;;;;;;5001779;28;8846;-81
2022/04/20 11:56:34;;;;;;;;;1.40;1.40;;;;;;;;5020307;28;8862;-81
2022/04/20 11:59:02;;;;;;;;;3.00;3.00;;;;;;;;5000591;28;8868;-81
2022/04/20 12:01:33;;;;;;;;;1.60;1.60;;;;;;;;5021200;28;8913;-81
2022/04/20 12:04:02;;;;;;;;;2.80;2.80;;;;;;;;5013672;28;8862;-81
2022/04/20 12:06:31;;;;;;;;;3.00;3.00;;;;;;;;5008600;28;8899;-81
2022/04/20 12:08:59;;;;;;;;;3.00;3.00;;;;;;;;5023114;28;8890;-81
2022/04/20 12:11:26;;;;;;;;;1.40;1.40;;;;;;;;5017564;28;8861;-80
2022/04/20 12:13:58;;;;;;;;;0.60;0.60;;;;;;;;5022598;28;8882;-81
2022/04/20 12:16:26;;;;;;;;;2.60;2.60;;;;;;;;5025356;28;8866;-80
2022/04/20 12:18:53;;;;;;;;;3.20;2.20;;;;;;;;5024049;28;8866;-81
2022/04/20 12:21:41;;;;;;;;;2.80;2.80;;;;;;;;5025158;28;9004;-81
2022/04/20 12:24:10;;;;;;;;;2.20;2.20;;;;;;;;4984999;28;8863;-81
2022/04/20 12:26:43;;;;;;;;;1.00;1.00;;;;;;;;5022448;28;8911;-81
2022/04/20 12:29:11;;;;;;;;;2.00;2.00;;;;;;;;5019090;28;9775;-81
2022/04/20 12:31:43;;;;;;;;;1.40;1.40;;;;;;;;5016495;28;8877;-81
2022/04/20 12:34:15;;;;;;;;;3.00;1.60;;;;;;;;5004073;28;8973;-80
2022/04/20 12:36:56;;;;;;;;;2.40;2.40;;;;;;;;5021456;28;8878;-81
2022/04/20 12:39:28;;;;;;;;;1.60;1.20;;;;;;;;5022747;28;8870;-81
2022/04/20 12:41:57;;;;;;;;;2.20;2.20;;;;;;;;4999029;28;8858;-81
2022/04/20 12:44:48;;;;;;;;;5.20;3.40;;;;;;;;5014775;28;8858;-80
2022/04/20 12:47:35;;;;;;;;;2.00;2.00;;;;;;;;5022736;28;8850;-81
2022/04/20 12:50:16;;;;;;;;;1.40;1.40;;;;;;;;5001932;28;8870;-81
2022/04/20 12:52:54;;;;;;;;;1.80;1.80;;;;;;;;5022312;28;9605;-81
2022/04/20 12:55:22;;;;;;;;;1.60;1.60;;;;;;;;5020965;28;8908;-81
2022/04/20 13:03:37;;;;;;;;;1.60;1.60;;;;;;;;5017468;28;8901;-82
2022/04/20 13:06:10;;;;;;;;;1.60;1.60;;;;;;;;5009685;28;8866;-83
2022/04/20 13:08:40;;;;;;;;;1.40;1.40;;;;;;;;5012860;28;8837;-81
2022/04/20 13:11:07;;;;;;;;;1.00;1.00;;;;;;;;5019400;28;9036;-84
2022/04/20 13:13:35;;;;;;;;;1.00;1.00;;;;;;;;5016616;28;8870;-83
2022/04/20 13:16:03;;;;;;;;;2.20;2.00;;;;;;;;5016717;28;8886;-81
2022/04/20 13:18:30;;;;;;;;;0.40;0.40;;;;;;;;5020773;28;8927;-80
2022/04/20 13:20:58;;;;;;;;;1.20;1.20;;;;;;;;5018115;28;9520;-81
2022/04/20 13:23:25;;;;;;;;;3.40;1.80;;;;;;;;5013574;28;8853;-82
2022/04/20 13:28:39;;;;;;;;;2.20;2.20;;;;;;;;5016209;28;10065;-80
2022/04/20 13:31:07;;;;;;;;;1.80;1.80;;;;;;;;5017670;28;8795;-77
2022/04/20 13:33:35;;;;;;;;;1.20;1.20;;;;;;;;5017446;28;8880;-79
2022/04/20 13:36:03;;;;;;;;;2.80;2.00;;;;;;;;5015491;28;8994;-78
2022/04/20 13:38:31;;;;;;;;;2.20;2.20;;;;;;;;5017323;28;8937;-78
2022/04/20 13:41:00;;;;;;;;;1.80;1.80;;;;;;;;5021006;28;8878;-77
2022/04/20 13:43:27;;;;;;;;;1.20;1.20;;;;;;;;5019333;28;8858;-77
2022/04/20 13:45:55;;;;;;;;;2.00;2.00;;;;;;;;5018068;28;8850;-78
2022/04/20 13:48:22;;;;;;;;;4.20;1.80;;;;;;;;5015981;28;8920;-79
2022/04/20 13:50:49;;;;;;;;;1.80;1.80;;;;;;;;5018277;28;8862;-79
2022/04/20 13:53:17;;;;;;;;;1.80;1.80;;;;;;;;4990685;28;8892;-79
2022/04/20 13:55:44;;;;;;;;;1.80;1.80;;;;;;;;5018145;28;8896;-79
2022/04/20 13:58:13;;;;;;;;;1.80;1.80;;;;;;;;5018965;28;8890;-79
2022/04/20 14:00:40;;;;;;;;;1.80;1.80;;;;;;;;5016378;28;8803;-80
2022/04/20 14:03:08;;;;;;;;;1.80;1.80;;;;;;;;5016007;28;8862;-80
2022/04/20 14:05:36;;;;;;;;;3.00;2.00;;;;;;;;5015458;28;8877;-80
2022/04/20 14:08:03;;;;;;;;;0.80;0.80;;;;;;;;5018289;28;9568;-80
2022/04/20 14:10:31;;;;;;;;;0.80;0.80;;;;;;;;5021531;28;8854;-80
2022/04/20 14:12:58;;;;;;;;;1.00;1.00;;;;;;;;5018500;28;8866;-79
2022/04/20 14:15:27;;;;;;;;;0.80;0.80;;;;;;;;5020494;28;9708;-80
2022/04/20 14:17:56;;;;;;;;;1.80;1.80;;;;;;;;5016793;28;8858;-80
2022/04/20 14:20:24;;;;;;;;;0.80;0.80;;;;;;;;4986143;28;9648;-84
2022/04/20 14:22:51;;;;;;;;;1.40;1.40;;;;;;;;5021688;28;8865;-80
2022/04/20 14:33:34;;;;;;;;;1.00;1.00;;;;;;;;5020612;28;8870;-80
2022/04/20 14:36:02;;;;;;;;;1.80;1.80;;;;;;;;5021320;28;8858;-80
2022/04/20 14:38:29;;;;;;;;;0.80;0.80;;;;;;;;5024806;28;8866;-80
2022/04/20 14:40:56;;;;;;;;;0.80;0.80;;;;;;;;5024707;28;8907;-80
2022/04/20 14:43:23;;;;;;;;;2.80;1.00;;;;;;;;5020821;28;8908;-79
2022/04/20 14:45:52;;;;;;;;;0.80;0.80;;;;;;;;5025959;28;8893;-80
2022/04/20 14:48:19;;;;;;;;;1.40;1.40;;;;;;;;5024297;28;8896;-80
2022/04/20 14:50:47;;;;;;;;;0.80;0.80;;;;;;;;5029421;28;8933;-80
2022/04/20 14:53:14;;;;;;;;;1.00;1.00;;;;;;;;5019525;28;8936;-80
2022/04/20 14:55:42;;;;;;;;;0.80;0.80;;;;;;;;5023641;28;8900;-80
2022/04/20 14:58:09;;;;;;;;;1.80;1.80;;;;;;;;5007585;28;10075;-80
2022/04/20 15:00:40;;;;;;;;;0.80;0.80;;;;;;;;5004949;28;8807;-80
2022/04/20 15:03:09;;;;;;;;;2.00;1.60;;;;;;;;5024398;28;8870;-81
2022/04/20 15:05:37;;;;;;;;;2.00;2.00;;;;;;;;5010287;28;8848;-80
2022/04/20 15:08:05;;;;;;;;;1.00;1.00;;;;;;;;5013287;28;8870;-80
2022/04/20 15:10:34;;;;;;;;;1.80;1.80;;;;;;;;5023822;28;8859;-79
2022/04/20 15:13:01;;;;;;;;;2.00;2.00;;;;;;;;5023625;28;8873;-81
2022/04/20 15:15:29;;;;;;;;;1.80;0.80;;;;;;;;5022372;28;8899;-80
2022/04/20 15:17:56;;;;;;;;;1.60;1.60;;;;;;;;5013576;28;8862;-80
2022/04/20 15:20:25;;;;;;;;;1.60;1.60;;;;;;;;4997842;28;8857;-80
2022/04/20 15:22:52;;;;;;;;;1.80;1.80;;;;;;;;5021497;28;8870;-81
2022/04/20 15:25:19;;;;;;;;;0.80;0.80;;;;;;;;5024292;28;8862;-81
2022/04/20 15:27:47;;;;;;;;;1.40;1.40;;;;;;;;5022963;28;8846;-80
2022/04/20 15:30:14;;;;;;;;;1.80;1.80;;;;;;;;5017283;28;8858;-80
2022/04/20 15:32:42;;;;;;;;;1.20;1.20;;;;;;;;5022915;28;8886;-80
2022/04/20 15:35:11;;;;;;;;;1.80;1.80;;;;;;;;5015865;28;8990;-80
2022/04/20 15:37:41;;;;;;;;;1.00;1.00;;;;;;;;5008091;28;9587;-79